createdAt,value
2018-02-20T00:02:35.476Z,28.10
2018-02-20T00:07:41.570Z,26.50
2018-02-20T00:12:46.522Z,29.53
2018-02-20T00:17:53.193Z,31.33
2018-02-20T00:23:03.798Z,27.40
2018-02-20T00:28:12.735Z,27.73
2018-02-20T00:33:18.409Z,24.70
2018-02-20T00:38:26.922Z,22.23
2018-02-20T00:43:31.889Z,26.33
2018-02-20T00:48:36.172Z,28.97
2018-02-20T00:53:40.000Z,29.27
2018-02-20T00:58:46.586Z,25.23
2018-02-20T01:03:50.905Z,27.17
2018-02-20T01:09:01.692Z,28.63
2018-02-20T01:14:06.541Z,24.37
2018-02-20T01:19:11.984Z,19.67
2018-02-20T01:24:17.004Z,28.00
2018-02-20T01:29:20.988Z,32.30
2018-02-20T01:34:26.570Z,29.63
2018-02-20T01:39:31.629Z,28.27
2018-02-20T01:44:40.259Z,22.10
2018-02-20T01:49:45.721Z,29.57
2018-02-20T01:54:54.281Z,36.60
2018-02-20T01:59:59.401Z,25.83
2018-02-20T02:05:10.911Z,23.83
2018-02-20T02:10:16.060Z,30.50
2018-02-20T02:15:22.679Z,26.07
2018-02-20T02:20:27.045Z,28.37
2018-02-20T02:25:35.985Z,24.73
2018-02-20T02:30:41.071Z,31.83
2018-02-20T02:35:52.227Z,25.63
2018-02-20T02:40:56.969Z,25.67
2018-02-20T02:46:10.610Z,25.17
2018-02-20T02:51:15.328Z,25.83
2018-02-20T02:56:31.655Z,28.67
2018-02-20T03:01:37.561Z,25.03
2018-02-20T03:06:44.114Z,18.27
2018-02-20T03:11:48.620Z,27.33
2018-02-20T03:16:56.836Z,26.27
2018-02-20T03:22:01.298Z,23.33
2018-02-20T03:27:14.189Z,27.17
2018-02-20T03:32:19.762Z,22.70
2018-02-20T03:37:28.489Z,23.07
2018-02-20T03:42:34.216Z,22.60
2018-02-20T03:47:44.968Z,20.47
2018-02-20T03:52:49.344Z,21.47
2018-02-20T03:58:01.145Z,25.80
2018-02-20T04:03:05.037Z,23.57
2018-02-20T04:08:14.872Z,26.77
2018-02-20T04:13:20.105Z,21.37
2018-02-20T04:18:25.346Z,17.37
2018-02-20T04:23:31.405Z,19.57
2018-02-20T04:28:39.766Z,17.87
2018-02-20T04:33:45.047Z,19.10
2018-02-20T04:38:59.862Z,17.47
2018-02-20T04:44:08.883Z,19.57
2018-02-20T04:49:12.862Z,23.80
2018-02-20T04:54:21.391Z,15.60
2018-02-20T04:59:27.213Z,16.30
2018-02-20T05:04:37.594Z,22.60
2018-02-20T05:09:42.535Z,16.90
2018-02-20T05:14:49.672Z,12.30
2018-02-20T05:19:53.838Z,15.43
2018-02-20T05:25:05.157Z,16.40
2018-02-20T05:30:09.563Z,21.80
2018-02-20T05:35:13.653Z,18.43
2018-02-20T05:40:18.585Z,11.83
2018-02-20T05:45:24.093Z,17.80
2018-02-20T05:50:28.965Z,13.67
2018-02-20T05:55:34.112Z,18.77
2018-02-20T06:00:38.956Z,13.20
2018-02-20T06:05:43.609Z,11.63
2018-02-20T06:10:47.961Z,17.30
2018-02-20T06:15:54.017Z,10.47
2018-02-20T06:20:58.892Z,14.10
2018-02-20T06:26:09.576Z,12.03
2018-02-20T06:31:15.149Z,9.03
2018-02-20T06:36:25.770Z,9.93
2018-02-20T06:41:30.645Z,12.63
2018-02-20T06:46:39.645Z,9.40
2018-02-20T06:51:43.526Z,7.37
2018-02-20T06:56:50.735Z,10.87
2018-02-20T07:01:55.765Z,11.93
2018-02-20T07:07:06.929Z,10.37
2018-02-20T07:12:12.194Z,13.03
2018-02-20T07:17:17.941Z,11.07
2018-02-20T07:22:23.538Z,27.97
2018-02-20T07:27:32.820Z,35.40
2018-02-20T07:32:37.570Z,28.37
2018-02-20T07:37:44.326Z,17.57
2018-02-20T07:42:49.651Z,17.43
2018-02-20T07:47:58.426Z,17.87
2018-02-20T07:53:03.261Z,12.30
2018-02-20T07:58:10.772Z,12.20
2018-02-20T08:03:16.685Z,9.47
2018-02-20T08:08:22.774Z,12.87
2018-02-20T08:13:28.634Z,17.20
2018-02-20T08:18:32.786Z,18.20
2018-02-20T08:23:39.499Z,13.17
2018-02-20T08:28:44.213Z,12.00
2018-02-20T08:33:50.496Z,13.73
2018-02-20T08:38:55.138Z,11.40
2018-02-20T08:44:05.192Z,10.70
2018-02-20T08:49:10.522Z,11.83
2018-02-20T08:54:19.261Z,10.03
2018-02-20T08:59:24.201Z,14.13
2018-02-20T09:04:34.937Z,16.57
2018-02-20T09:09:41.105Z,16.63
2018-02-20T09:14:49.465Z,14.67
2018-02-20T09:19:54.142Z,17.10
2018-02-20T09:25:02.034Z,37.00
2018-02-20T09:30:07.397Z,19.07
2018-02-20T09:35:13.288Z,16.03
2018-02-20T09:40:18.606Z,23.80
2018-02-20T09:45:23.665Z,17.43
2018-02-20T09:50:29.106Z,24.30
2018-02-20T09:55:38.242Z,22.30
2018-02-20T10:00:43.404Z,23.83
2018-02-20T10:05:47.413Z,28.47
2018-02-20T10:10:52.492Z,24.50
2018-02-20T10:16:02.325Z,27.10
2018-02-20T10:21:07.609Z,24.07
2018-02-20T10:26:15.654Z,29.70
2018-02-20T10:31:20.487Z,31.17
2018-02-20T10:36:31.793Z,23.87
2018-02-20T10:41:36.428Z,26.07
2018-02-20T10:46:46.206Z,27.87
2018-02-20T10:51:51.563Z,29.20
2018-02-20T10:56:57.725Z,21.80
2018-02-20T11:02:02.966Z,36.37
2018-02-20T11:07:20.158Z,36.23
2018-02-20T11:12:25.537Z,39.87
2018-02-20T11:17:43.345Z,56.50
2018-02-20T11:22:48.735Z,40.57
2018-02-20T11:27:54.078Z,31.37
2018-02-20T11:33:00.250Z,27.50
2018-02-20T11:38:05.722Z,29.50
2018-02-20T11:43:16.690Z,44.50
2018-02-20T11:48:21.354Z,35.97
2018-02-20T11:53:27.293Z,27.23
2018-02-20T11:58:32.202Z,31.40
2018-02-20T12:03:43.507Z,33.93
2018-02-20T12:08:48.882Z,33.10
2018-02-20T12:14:00.485Z,37.37
2018-02-20T12:19:05.846Z,39.47
2018-02-20T12:24:13.507Z,45.67
2018-02-20T12:29:18.449Z,37.13
2018-02-20T12:34:33.833Z,49.73
2018-02-20T12:39:37.933Z,41.07
2018-02-20T12:44:49.322Z,69.17
2018-02-20T12:49:54.833Z,50.27
2018-02-20T12:55:03.994Z,39.57
2018-02-20T13:00:08.565Z,42.47
2018-02-20T13:05:14.867Z,42.77
2018-02-20T13:10:19.418Z,26.50
2018-02-20T13:15:32.214Z,44.00
2018-02-20T13:20:37.146Z,30.13
2018-02-20T13:25:46.645Z,49.80
2018-02-20T13:30:51.582Z,56.67
2018-02-20T13:36:01.122Z,36.37
2018-02-20T13:41:06.618Z,34.27
2018-02-20T13:46:30.679Z,49.87
2018-02-20T13:51:35.989Z,35.70
2018-02-20T13:56:45.225Z,35.93
2018-02-20T14:01:50.383Z,34.37
2018-02-20T14:07:02.663Z,35.00
2018-02-20T14:12:06.984Z,33.67
2018-02-20T14:17:17.328Z,34.87
2018-02-20T14:22:22.568Z,51.17
2018-02-20T14:27:26.269Z,57.97
2018-02-20T14:32:33.973Z,59.70
2018-02-20T14:37:37.581Z,49.23
2018-02-20T14:42:42.937Z,39.37
2018-02-20T14:47:47.172Z,32.50
2018-02-20T14:52:57.097Z,50.73
2018-02-20T14:58:01.270Z,38.00
2018-02-20T15:03:08.440Z,35.20
2018-02-20T15:08:12.085Z,30.93
2018-02-20T15:13:19.192Z,37.87
2018-02-20T15:18:22.696Z,33.67
2018-02-20T15:23:32.854Z,29.90
2018-02-20T15:28:36.557Z,29.50
2018-02-20T15:33:43.879Z,42.23
2018-02-20T15:38:47.282Z,44.37
2018-02-20T15:44:01.442Z,46.00
2018-02-20T15:49:05.106Z,53.20
2018-02-20T15:54:09.657Z,46.63
2018-02-20T15:59:13.842Z,41.90
2018-02-20T16:04:25.362Z,81.03
2018-02-20T16:09:28.921Z,33.03
2018-02-20T16:14:36.441Z,32.37
2018-02-20T16:19:40.435Z,39.83
2018-02-20T16:24:45.769Z,47.00
2018-02-20T16:29:49.991Z,31.37
2018-02-20T16:35:05.514Z,29.33
2018-02-20T16:40:10.024Z,33.10
2018-02-20T16:45:13.821Z,32.20
2018-02-20T16:50:17.465Z,38.50
2018-02-20T16:55:35.212Z,32.07
2018-02-20T17:00:39.046Z,33.90
2018-02-20T17:05:49.134Z,34.07
2018-02-20T17:10:52.584Z,43.00
2018-02-20T17:15:59.826Z,50.27
2018-02-20T17:21:04.046Z,85.40
2018-02-20T17:26:11.867Z,47.57
2018-02-20T17:31:16.009Z,53.47
2018-02-20T17:36:31.372Z,30.97
2018-02-20T17:41:36.085Z,38.60
2018-02-20T17:46:53.969Z,95.03
2018-02-20T17:51:58.719Z,37.90
2018-02-20T17:57:03.407Z,43.13
2018-02-20T18:02:07.578Z,33.60
2018-02-20T18:07:11.293Z,35.93
2018-02-20T18:12:16.509Z,29.13
2018-02-20T18:17:19.786Z,28.97
2018-02-20T18:22:24.903Z,26.77
2018-02-20T18:27:30.050Z,28.23
2018-02-20T18:32:38.381Z,31.70
2018-02-20T18:37:43.320Z,32.57
2018-02-20T18:42:52.966Z,28.93
2018-02-20T18:47:57.459Z,30.40
2018-02-20T18:53:05.127Z,33.87
2018-02-20T18:58:12.251Z,27.53
2018-02-20T19:03:21.362Z,33.20
2018-02-20T19:08:24.619Z,29.53
2018-02-20T19:13:32.587Z,27.47
2018-02-20T19:18:37.344Z,27.87
2018-02-20T19:23:46.058Z,29.27
2018-02-20T19:28:50.169Z,30.50
2018-02-20T19:33:54.361Z,25.33
2018-02-20T19:38:58.882Z,31.53
2018-02-20T19:44:09.531Z,32.47
2018-02-20T19:49:13.412Z,32.63
2018-02-20T19:54:20.665Z,33.97
2018-02-20T19:59:24.256Z,58.30
2018-02-20T20:04:27.844Z,29.73
2018-02-20T20:09:32.498Z,29.43
2018-02-20T20:14:40.416Z,32.10
2018-02-20T20:19:45.012Z,33.13
2018-02-20T20:24:53.896Z,30.47
2018-02-20T20:29:58.701Z,28.90
2018-02-20T20:35:06.502Z,31.60
2018-02-20T20:40:10.730Z,34.87
2018-02-20T20:45:14.397Z,30.03
2018-02-20T20:50:18.758Z,36.93
2018-02-20T20:55:23.166Z,27.87
2018-02-20T21:00:27.359Z,32.27
2018-02-20T21:05:34.698Z,23.57
2018-02-20T21:10:38.214Z,28.40
2018-02-20T21:15:41.823Z,26.73
2018-02-20T21:20:46.530Z,25.97
2018-02-20T21:26:00.749Z,29.57
2018-02-20T21:31:04.603Z,36.13
2018-02-20T21:36:12.092Z,26.77
2018-02-20T21:41:15.550Z,23.47
2018-02-20T21:46:19.511Z,21.67
2018-02-20T21:51:22.823Z,29.23
2018-02-20T21:56:27.165Z,21.97
2018-02-20T22:01:41.982Z,30.73
2018-02-20T22:06:45.680Z,27.63
2018-02-20T22:11:49.183Z,25.93
2018-02-20T22:16:53.548Z,26.90
2018-02-20T22:21:57.473Z,28.37
2018-02-20T22:27:00.786Z,24.53
2018-02-20T22:32:06.210Z,24.07
2018-02-20T22:37:09.969Z,21.27
2018-02-20T22:42:14.855Z,24.33
2018-02-20T22:47:18.642Z,24.27
2018-02-20T22:52:22.660Z,23.00
2018-02-20T22:57:27.231Z,21.00
2018-02-20T23:02:32.632Z,22.70
2018-02-20T23:07:36.417Z,25.00
2018-02-20T23:12:46.993Z,23.83
2018-02-20T23:17:50.473Z,28.30
2018-02-20T23:22:59.214Z,27.53
2018-02-20T23:28:03.349Z,16.93
2018-02-20T23:33:14.029Z,24.27
2018-02-20T23:38:18.509Z,17.23
2018-02-20T23:43:25.950Z,16.10
2018-02-20T23:48:29.306Z,25.23
2018-02-20T23:53:34.420Z,33.70
2018-02-20T23:58:38.061Z,25.17
